sensor_id;sensor_type;location;lat;lon;timestamp;pressure;altitude;pressure_sealevel;temperature;humidity
47750;BME280;49810;48.160;10.812;2022-10-26T00:01:03;95353.47;;;10.03;88.32
47750;BME280;49810;48.160;10.812;2022-10-26T00:03:32;95358.22;;;10.01;88.35
47750;BME280;49810;48.160;10.812;2022-10-26T00:06:07;95364.50;;;10.11;88.14
47750;BME280;49810;48.160;10.812;2022-10-26T00:08:35;95359.38;;;10.05;88.21
47750;BME280;49810;48.160;10.812;2022-10-26T00:11:04;95355.34;;;10.02;88.60
47750;BME280;49810;48.160;10.812;2022-10-26T00:13:33;95357.09;;;9.97;88.91
47750;BME280;49810;48.160;10.812;2022-10-26T00:16:06;95363.19;;;9.97;88.77
47750;BME280;49810;48.160;10.812;2022-10-26T00:18:35;95360.53;;;9.97;89.08
47750;BME280;49810;48.160;10.812;2022-10-26T00:21:03;95359.50;;;9.98;88.87
47750;BME280;49810;48.160;10.812;2022-10-26T00:23:33;95359.50;;;9.98;88.92
47750;BME280;49810;48.160;10.812;2022-10-26T00:26:01;95358.44;;;9.99;88.77
47750;BME280;49810;48.160;10.812;2022-10-26T00:28:30;95363.72;;;9.99;88.99
47750;BME280;49810;48.160;10.812;2022-10-26T00:31:02;95353.16;;;9.99;88.86
47750;BME280;49810;48.160;10.812;2022-10-26T00:33:30;95359.56;;;10.03;88.87
47750;BME280;49810;48.160;10.812;2022-10-26T00:35:59;95358.56;;;10.04;88.69
47750;BME280;49810;48.160;10.812;2022-10-26T00:38:27;95362.22;;;10.03;88.90
47750;BME280;49810;48.160;10.812;2022-10-26T00:40:56;95358.22;;;10.01;89.00
47750;BME280;49810;48.160;10.812;2022-10-26T00:43:36;95364.75;;;10.10;88.80
47750;BME280;49810;48.160;10.812;2022-10-26T00:46:08;95359.31;;;10.16;88.69
47750;BME280;49810;48.160;10.812;2022-10-26T00:48:42;95363.78;;;10.32;88.12
47750;BME280;49810;48.160;10.812;2022-10-26T00:51:15;95356.75;;;10.21;88.12
47750;BME280;49810;48.160;10.812;2022-10-26T00:53:45;95357.94;;;10.14;88.69
47750;BME280;49810;48.160;10.812;2022-10-26T00:56:15;95359.47;;;10.10;88.81
47750;BME280;49810;48.160;10.812;2022-10-26T00:58:44;95364.75;;;10.10;88.93
47750;BME280;49810;48.160;10.812;2022-10-26T01:01:12;95378.19;;;10.08;88.41
47750;BME280;49810;48.160;10.812;2022-10-26T01:03:41;95386.78;;;10.65;86.73
47750;BME280;49810;48.160;10.812;2022-10-26T01:06:10;95370.59;;;10.28;87.98
47750;BME280;49810;48.160;10.812;2022-10-26T01:08:40;95363.38;;;10.24;87.99
47750;BME280;49810;48.160;10.812;2022-10-26T01:11:09;95367.06;;;10.23;88.38
47750;BME280;49810;48.160;10.812;2022-10-26T01:13:41;95369.94;;;10.21;88.29
47750;BME280;49810;48.160;10.812;2022-10-26T01:16:29;95366.72;;;10.19;88.69
47750;BME280;49810;48.160;10.812;2022-10-26T01:19:22;95362.25;;;10.20;88.89
47750;BME280;49810;48.160;10.812;2022-10-26T01:22:01;95364.66;;;10.21;88.83
47750;BME280;49810;48.160;10.812;2022-10-26T01:24:49;95373.88;;;10.19;89.16
47750;BME280;49810;48.160;10.812;2022-10-26T01:27:26;95381.88;;;10.24;88.50
47750;BME280;49810;48.160;10.812;2022-10-26T01:30:19;95375.25;;;10.21;88.96
47750;BME280;49810;48.160;10.812;2022-10-26T01:33:00;95375.09;;;10.28;88.71
47750;BME280;49810;48.160;10.812;2022-10-26T01:35:33;95385.16;;;10.31;88.64
47750;BME280;49810;48.160;10.812;2022-10-26T01:38:08;95386.78;;;10.32;88.37
47750;BME280;49810;48.160;10.812;2022-10-26T01:40:39;95377.56;;;10.34;88.61
47750;BME280;49810;48.160;10.812;2022-10-26T01:43:11;95373.50;;;10.27;88.48
47750;BME280;49810;48.160;10.812;2022-10-26T01:45:44;95387.97;;;10.24;88.71
47750;BME280;49810;48.160;10.812;2022-10-26T01:48:17;95405.53;;;10.30;88.53
47750;BME280;49810;48.160;10.812;2022-10-26T01:50:49;95394.44;;;10.33;88.81
47750;BME280;49810;48.160;10.812;2022-10-26T01:53:19;95388.94;;;10.35;88.96
47750;BME280;49810;48.160;10.812;2022-10-26T01:55:48;95390.28;;;10.37;88.79
47750;BME280;49810;48.160;10.812;2022-10-26T01:58:43;95374.19;;;10.39;88.55
47750;BME280;49810;48.160;10.812;2022-10-26T02:01:32;95381.41;;;10.43;88.77
47750;BME280;49810;48.160;10.812;2022-10-26T02:04:10;95380.53;;;10.38;88.82
47750;BME280;49810;48.160;10.812;2022-10-26T02:06:47;95367.47;;;10.31;88.82
47750;BME280;49810;48.160;10.812;2022-10-26T02:09:27;95366.25;;;10.39;88.76
47750;BME280;49810;48.160;10.812;2022-10-26T02:12:02;95357.22;;;10.35;88.64
47750;BME280;49810;48.160;10.812;2022-10-26T02:14:36;95357.28;;;10.40;89.00
47750;BME280;49810;48.160;10.812;2022-10-26T02:17:16;95353.28;;;10.37;88.83
47750;BME280;49810;48.160;10.812;2022-10-26T02:19:50;95351.22;;;10.39;89.12
47750;BME280;49810;48.160;10.812;2022-10-26T02:22:23;95341.78;;;10.43;89.20
47750;BME280;49810;48.160;10.812;2022-10-26T02:24:54;95350.09;;;10.52;89.32
47750;BME280;49810;48.160;10.812;2022-10-26T02:27:25;95351.44;;;10.54;88.77
47750;BME280;49810;48.160;10.812;2022-10-26T02:29:56;95335.50;;;10.66;87.94
47750;BME280;49810;48.160;10.812;2022-10-26T02:32:29;95322.38;;;10.54;89.42
47750;BME280;49810;48.160;10.812;2022-10-26T02:35:01;95300.34;;;10.49;89.82
47750;BME280;49810;48.160;10.812;2022-10-26T02:37:32;95301.38;;;10.48;90.06
47750;BME280;49810;48.160;10.812;2022-10-26T02:40:04;95307.94;;;10.45;89.97
47750;BME280;49810;48.160;10.812;2022-10-26T02:42:34;95321.34;;;10.39;89.95
47750;BME280;49810;48.160;10.812;2022-10-26T02:45:07;95318.47;;;10.40;90.33
47750;BME280;49810;48.160;10.812;2022-10-26T02:47:38;95320.56;;;10.38;90.44
47750;BME280;49810;48.160;10.812;2022-10-26T02:50:06;95324.22;;;10.37;90.50
47750;BME280;49810;48.160;10.812;2022-10-26T02:52:40;95326.53;;;10.34;90.39
47750;BME280;49810;48.160;10.812;2022-10-26T02:55:14;95329.75;;;10.36;90.53
47750;BME280;49810;48.160;10.812;2022-10-26T02:57:47;95322.44;;;10.59;89.61
47750;BME280;49810;48.160;10.812;2022-10-26T03:00:17;95325.75;;;10.50;89.31
47750;BME280;49810;48.160;10.812;2022-10-26T03:02:51;95323.28;;;10.43;89.96
47750;BME280;49810;48.160;10.812;2022-10-26T03:05:23;95315.41;;;10.48;89.76
47750;BME280;49810;48.160;10.812;2022-10-26T03:07:54;95306.75;;;10.36;90.13
47750;BME280;49810;48.160;10.812;2022-10-26T03:10:23;95316.94;;;10.28;90.14
47750;BME280;49810;48.160;10.812;2022-10-26T03:12:51;95319.28;;;10.24;90.92
47750;BME280;49810;48.160;10.812;2022-10-26T03:15:20;95321.81;;;10.19;91.24
47750;BME280;49810;48.160;10.812;2022-10-26T03:17:49;95327.09;;;10.19;91.31
47750;BME280;49810;48.160;10.812;2022-10-26T03:20:18;95322.63;;;10.20;91.57
47750;BME280;49810;48.160;10.812;2022-10-26T03:22:46;95326.88;;;10.21;91.56
47750;BME280;49810;48.160;10.812;2022-10-26T03:25:14;95329.34;;;10.27;91.24
47750;BME280;49810;48.160;10.812;2022-10-26T03:27:42;95327.75;;;10.26;91.25
47750;BME280;49810;48.160;10.812;2022-10-26T03:30:11;95332.31;;;10.31;91.28
47750;BME280;49810;48.160;10.812;2022-10-26T03:32:38;95338.47;;;10.36;90.91
47750;BME280;49810;48.160;10.812;2022-10-26T03:35:08;95344.81;;;10.35;90.88
47750;BME280;49810;48.160;10.812;2022-10-26T03:37:36;95352.00;;;10.40;90.83
47750;BME280;49810;48.160;10.812;2022-10-26T03:40:05;95353.94;;;10.44;90.75
47750;BME280;49810;48.160;10.812;2022-10-26T03:42:35;95354.75;;;10.45;90.95
47750;BME280;49810;48.160;10.812;2022-10-26T03:45:04;95362.41;;;10.46;90.85
47750;BME280;49810;48.160;10.812;2022-10-26T03:47:33;95360.28;;;10.43;90.71
47750;BME280;49810;48.160;10.812;2022-10-26T03:50:01;95360.81;;;10.45;90.54
47750;BME280;49810;48.160;10.812;2022-10-26T03:52:30;95362.75;;;10.50;90.63
47750;BME280;49810;48.160;10.812;2022-10-26T03:54:59;95365.84;;;10.63;90.12
47750;BME280;49810;48.160;10.812;2022-10-26T03:57:27;95364.75;;;10.59;90.07
47750;BME280;49810;48.160;10.812;2022-10-26T03:59:55;95368.66;;;10.57;89.89
47750;BME280;49810;48.160;10.812;2022-10-26T04:02:23;95371.31;;;10.57;90.28
47750;BME280;49810;48.160;10.812;2022-10-26T04:04:51;95376.91;;;10.60;90.71
47750;BME280;49810;48.160;10.812;2022-10-26T04:07:19;95370.59;;;10.61;90.81
47750;BME280;49810;48.160;10.812;2022-10-26T04:09:49;95375.38;;;10.64;89.89
47750;BME280;49810;48.160;10.812;2022-10-26T04:12:17;95388.31;;;10.99;89.12
47750;BME280;49810;48.160;10.812;2022-10-26T04:14:45;95402.56;;;11.53;85.96
47750;BME280;49810;48.160;10.812;2022-10-26T04:17:13;95408.81;;;11.47;85.64
47750;BME280;49810;48.160;10.812;2022-10-26T04:19:41;95432.66;;;11.47;85.18
47750;BME280;49810;48.160;10.812;2022-10-26T04:22:10;95449.53;;;11.41;85.60
47750;BME280;49810;48.160;10.812;2022-10-26T04:24:38;95462.16;;;11.34;85.56
47750;BME280;49810;48.160;10.812;2022-10-26T04:27:08;95485.97;;;11.34;86.47
47750;BME280;49810;48.160;10.812;2022-10-26T04:29:36;95498.09;;;11.30;87.11
47750;BME280;49810;48.160;10.812;2022-10-26T04:32:04;95479.31;;;11.14;87.06
47750;BME280;49810;48.160;10.812;2022-10-26T04:34:32;95498.09;;;11.13;87.11
47750;BME280;49810;48.160;10.812;2022-10-26T04:37:01;95508.13;;;11.11;87.13
47750;BME280;49810;48.160;10.812;2022-10-26T04:39:29;95503.94;;;11.15;86.59
47750;BME280;49810;48.160;10.812;2022-10-26T04:41:57;95481.81;;;11.04;86.71
47750;BME280;49810;48.160;10.812;2022-10-26T04:44:26;95487.97;;;11.27;87.15
47750;BME280;49810;48.160;10.812;2022-10-26T04:46:55;95480.66;;;11.17;86.49
47750;BME280;49810;48.160;10.812;2022-10-26T04:49:23;95473.44;;;11.29;86.39
47750;BME280;49810;48.160;10.812;2022-10-26T04:51:51;95471.19;;;11.38;86.83
47750;BME280;49810;48.160;10.812;2022-10-26T04:54:19;95482.28;;;11.35;86.65
47750;BME280;49810;48.160;10.812;2022-10-26T04:56:47;95488.94;;;11.37;86.29
47750;BME280;49810;48.160;10.812;2022-10-26T04:59:15;95494.28;;;11.42;86.20
47750;BME280;49810;48.160;10.812;2022-10-26T05:01:47;95488.81;;;11.49;86.20
47750;BME280;49810;48.160;10.812;2022-10-26T05:04:15;95485.38;;;11.48;86.01
47750;BME280;49810;48.160;10.812;2022-10-26T05:06:43;95490.66;;;11.48;85.33
47750;BME280;49810;48.160;10.812;2022-10-26T05:09:11;95483.13;;;11.57;85.01
47750;BME280;49810;48.160;10.812;2022-10-26T05:11:39;95485.75;;;11.57;84.82
47750;BME280;49810;48.160;10.812;2022-10-26T05:14:07;95485.88;;;11.45;85.55
47750;BME280;49810;48.160;10.812;2022-10-26T05:16:35;95484.91;;;11.35;86.12
47750;BME280;49810;48.160;10.812;2022-10-26T05:19:05;95482.81;;;11.37;85.71
47750;BME280;49810;48.160;10.812;2022-10-26T05:21:33;95489.47;;;11.39;85.85
47750;BME280;49810;48.160;10.812;2022-10-26T05:24:01;95484.91;;;11.35;86.08
47750;BME280;49810;48.160;10.812;2022-10-26T05:26:34;95481.66;;;11.49;85.57
47750;BME280;49810;48.160;10.812;2022-10-26T05:29:02;95472.25;;;11.58;85.21
47750;BME280;49810;48.160;10.812;2022-10-26T05:31:31;95473.34;;;11.41;86.00
47750;BME280;49810;48.160;10.812;2022-10-26T05:33:59;95469.50;;;11.32;86.88
47750;BME280;49810;48.160;10.812;2022-10-26T05:36:29;95478.56;;;11.36;86.74
47750;BME280;49810;48.160;10.812;2022-10-26T05:38:58;95472.47;;;11.35;86.67
47750;BME280;49810;48.160;10.812;2022-10-26T05:41:27;95485.56;;;11.25;87.08
47750;BME280;49810;48.160;10.812;2022-10-26T05:43:56;95477.47;;;11.32;86.74
47750;BME280;49810;48.160;10.812;2022-10-26T05:46:24;95475.84;;;11.31;86.00
47750;BME280;49810;48.160;10.812;2022-10-26T05:48:52;95484.34;;;11.32;85.86
47750;BME280;49810;48.160;10.812;2022-10-26T05:51:20;95499.00;;;11.40;85.70
47750;BME280;49810;48.160;10.812;2022-10-26T05:53:50;95489.06;;;11.47;85.37
47750;BME280;49810;48.160;10.812;2022-10-26T05:56:34;95494.84;;;11.61;85.37
47750;BME280;49810;48.160;10.812;2022-10-26T05:59:03;95491.22;;;11.67;85.34
47750;BME280;49810;48.160;10.812;2022-10-26T06:01:39;95503.00;;;11.76;85.15
47750;BME280;49810;48.160;10.812;2022-10-26T06:04:20;95487.28;;;11.69;85.28
47750;BME280;49810;48.160;10.812;2022-10-26T06:06:53;95487.81;;;11.71;86.22
47750;BME280;49810;48.160;10.812;2022-10-26T06:09:24;95476.81;;;11.79;85.77
47750;BME280;49810;48.160;10.812;2022-10-26T06:11:53;95485.75;;;11.95;85.36
47750;BME280;49810;48.160;10.812;2022-10-26T06:14:22;95486.72;;;11.89;86.23
47750;BME280;49810;48.160;10.812;2022-10-26T06:17:00;95492.31;;;12.14;85.04
47750;BME280;49810;48.160;10.812;2022-10-26T06:19:45;95489.31;;;12.05;85.16
47750;BME280;49810;48.160;10.812;2022-10-26T06:22:27;95499.03;;;12.00;86.20
47750;BME280;49810;48.160;10.812;2022-10-26T06:25:06;95502.91;;;12.14;86.02
47750;BME280;49810;48.160;10.812;2022-10-26T06:27:41;95496.44;;;12.26;85.19
47750;BME280;49810;48.160;10.812;2022-10-26T06:30:13;95495.03;;;12.19;86.02
47750;BME280;49810;48.160;10.812;2022-10-26T06:32:43;95494.97;;;12.14;85.40
47750;BME280;49810;48.160;10.812;2022-10-26T06:35:22;95494.78;;;12.20;84.94
47750;BME280;49810;48.160;10.812;2022-10-26T06:37:53;95499.41;;;12.08;86.10
47750;BME280;49810;48.160;10.812;2022-10-26T06:40:24;95495.16;;;12.07;86.09
47750;BME280;49810;48.160;10.812;2022-10-26T06:42:53;95496.16;;;12.01;86.13
47750;BME280;49810;48.160;10.812;2022-10-26T06:45:22;95490.91;;;12.06;85.87
47750;BME280;49810;48.160;10.812;2022-10-26T06:47:53;95496.69;;;12.03;85.81
47750;BME280;49810;48.160;10.812;2022-10-26T06:50:32;95494.72;;;12.15;85.02
47750;BME280;49810;48.160;10.812;2022-10-26T06:53:15;95503.78;;;12.19;85.09
47750;BME280;49810;48.160;10.812;2022-10-26T06:55:49;95505.34;;;12.15;85.47
47750;BME280;49810;48.160;10.812;2022-10-26T06:58:19;95496.75;;;12.30;85.31
47750;BME280;49810;48.160;10.812;2022-10-26T07:00:50;95514.16;;;12.21;85.34
47750;BME280;49810;48.160;10.812;2022-10-26T07:03:18;95521.22;;;12.37;85.47
47750;BME280;49810;48.160;10.812;2022-10-26T07:05:47;95513.50;;;12.35;85.01
47750;BME280;49810;48.160;10.812;2022-10-26T07:08:15;95512.66;;;12.56;84.42
47750;BME280;49810;48.160;10.812;2022-10-26T07:10:43;95510.59;;;12.58;83.46
47750;BME280;49810;48.160;10.812;2022-10-26T07:13:12;95506.97;;;12.69;83.21
47750;BME280;49810;48.160;10.812;2022-10-26T07:15:41;95499.91;;;12.53;83.99
47750;BME280;49810;48.160;10.812;2022-10-26T07:18:09;95510.59;;;12.58;84.36
47750;BME280;49810;48.160;10.812;2022-10-26T07:20:38;95500.81;;;12.64;84.02
47750;BME280;49810;48.160;10.812;2022-10-26T07:23:08;95496.34;;;12.69;84.20
47750;BME280;49810;48.160;10.812;2022-10-26T07:25:38;95501.16;;;12.72;84.44
47750;BME280;49810;48.160;10.812;2022-10-26T07:28:07;95502.09;;;12.88;83.99
47750;BME280;49810;48.160;10.812;2022-10-26T07:30:38;95509.00;;;12.89;83.98
47750;BME280;49810;48.160;10.812;2022-10-26T07:33:08;95506.25;;;13.05;83.80
47750;BME280;49810;48.160;10.812;2022-10-26T07:35:36;95500.13;;;13.36;82.34
47750;BME280;49810;48.160;10.812;2022-10-26T07:38:05;95512.94;;;13.44;81.56
47750;BME280;49810;48.160;10.812;2022-10-26T07:40:35;95508.91;;;13.42;80.80
47750;BME280;49810;48.160;10.812;2022-10-26T07:43:03;95513.47;;;13.46;81.21
47750;BME280;49810;48.160;10.812;2022-10-26T07:45:31;95517.19;;;13.45;81.80
47750;BME280;49810;48.160;10.812;2022-10-26T07:48:01;95517.28;;;13.60;80.69
47750;BME280;49810;48.160;10.812;2022-10-26T07:50:29;95514.41;;;13.67;79.90
47750;BME280;49810;48.160;10.812;2022-10-26T07:52:57;95525.13;;;13.87;79.54
47750;BME280;49810;48.160;10.812;2022-10-26T07:55:25;95530.13;;;14.25;77.78
47750;BME280;49810;48.160;10.812;2022-10-26T07:57:55;95527.00;;;14.33;77.25
47750;BME280;49810;48.160;10.812;2022-10-26T08:00:24;95538.06;;;14.20;77.52
47750;BME280;49810;48.160;10.812;2022-10-26T08:02:55;95529.06;;;14.21;77.88
47750;BME280;49810;48.160;10.812;2022-10-26T08:05:24;95538.13;;;14.25;77.82
47750;BME280;49810;48.160;10.812;2022-10-26T08:07:53;95537.16;;;14.51;76.85
47750;BME280;49810;48.160;10.812;2022-10-26T08:10:23;95542.19;;;14.52;76.95
47750;BME280;49810;48.160;10.812;2022-10-26T08:12:51;95540.38;;;14.63;76.53
47750;BME280;49810;48.160;10.812;2022-10-26T08:15:20;95541.19;;;14.73;75.70
47750;BME280;49810;48.160;10.812;2022-10-26T08:17:48;95540.19;;;14.94;74.62
47750;BME280;49810;48.160;10.812;2022-10-26T08:20:17;95536.75;;;15.24;73.82
47750;BME280;49810;48.160;10.812;2022-10-26T08:22:46;95527.44;;;15.36;73.76
47750;BME280;49810;48.160;10.812;2022-10-26T08:25:15;95531.69;;;15.22;73.50
47750;BME280;49810;48.160;10.812;2022-10-26T08:27:48;95536.19;;;15.07;73.59
47750;BME280;49810;48.160;10.812;2022-10-26T08:30:16;95528.50;;;15.35;73.20
47750;BME280;49810;48.160;10.812;2022-10-26T08:32:45;95539.41;;;15.29;73.82
47750;BME280;49810;48.160;10.812;2022-10-26T08:35:13;95535.16;;;15.38;73.83
47750;BME280;49810;48.160;10.812;2022-10-26T08:37:41;95538.81;;;14.82;75.32
47750;BME280;49810;48.160;10.812;2022-10-26T08:40:15;95539.16;;;15.30;73.90
47750;BME280;49810;48.160;10.812;2022-10-26T08:42:45;95537.53;;;15.09;74.17
47750;BME280;49810;48.160;10.812;2022-10-26T08:45:23;95534.56;;;14.96;75.45
47750;BME280;49810;48.160;10.812;2022-10-26T08:48:01;95526.38;;;15.37;73.73
47750;BME280;49810;48.160;10.812;2022-10-26T08:50:34;95532.50;;;15.48;73.05
47750;BME280;49810;48.160;10.812;2022-10-26T08:53:14;95539.97;;;15.51;72.88
47750;BME280;49810;48.160;10.812;2022-10-26T08:55:47;95537.53;;;15.74;72.16
47750;BME280;49810;48.160;10.812;2022-10-26T08:58:22;95535.34;;;15.91;71.01
47750;BME280;49810;48.160;10.812;2022-10-26T09:00:52;95541.25;;;15.78;72.25
47750;BME280;49810;48.160;10.812;2022-10-26T09:03:20;95541.50;;;15.82;71.41
47750;BME280;49810;48.160;10.812;2022-10-26T09:06:14;95545.97;;;16.11;71.06
47750;BME280;49810;48.160;10.812;2022-10-26T09:08:52;95548.28;;;16.38;70.42
47750;BME280;49810;48.160;10.812;2022-10-26T09:11:36;95553.09;;;16.41;70.70
47750;BME280;49810;48.160;10.812;2022-10-26T09:14:12;95562.44;;;16.48;70.50
47750;BME280;49810;48.160;10.812;2022-10-26T09:16:55;95556.81;;;16.45;70.63
47750;BME280;49810;48.160;10.812;2022-10-26T09:19:34;95563.16;;;16.59;70.00
47750;BME280;49810;48.160;10.812;2022-10-26T09:22:11;95567.06;;;16.81;67.80
47750;BME280;49810;48.160;10.812;2022-10-26T09:24:49;95558.81;;;17.21;66.71
47750;BME280;49810;48.160;10.812;2022-10-26T09:27:23;95554.88;;;17.52;66.15
47750;BME280;49810;48.160;10.812;2022-10-26T09:29:54;95559.53;;;17.65;65.29
47750;BME280;49810;48.160;10.812;2022-10-26T09:32:27;95552.31;;;17.66;66.09
47750;BME280;49810;48.160;10.812;2022-10-26T09:34:58;95560.66;;;18.16;64.29
47750;BME280;49810;48.160;10.812;2022-10-26T09:37:31;95559.97;;;17.77;65.21
47750;BME280;49810;48.160;10.812;2022-10-26T09:40:06;95572.66;;;17.95;64.53
47750;BME280;49810;48.160;10.812;2022-10-26T09:42:43;95568.53;;;18.31;63.89
47750;BME280;49810;48.160;10.812;2022-10-26T09:45:15;95566.75;;;18.22;63.44
47750;BME280;49810;48.160;10.812;2022-10-26T09:47:49;95564.59;;;18.24;63.03
47750;BME280;49810;48.160;10.812;2022-10-26T09:50:22;95575.72;;;18.59;62.53
47750;BME280;49810;48.160;10.812;2022-10-26T09:52:51;95572.50;;;18.39;62.11
47750;BME280;49810;48.160;10.812;2022-10-26T09:55:19;95588.22;;;18.45;61.19
47750;BME280;49810;48.160;10.812;2022-10-26T09:57:53;95588.97;;;18.93;60.33
47750;BME280;49810;48.160;10.812;2022-10-26T10:00:24;95594.31;;;18.93;60.40
47750;BME280;49810;48.160;10.812;2022-10-26T10:02:55;95587.97;;;19.07;59.53
47750;BME280;49810;48.160;10.812;2022-10-26T10:05:26;95605.00;;;19.16;58.63
47750;BME280;49810;48.160;10.812;2022-10-26T10:08:18;95605.09;;;19.11;59.14
47750;BME280;49810;48.160;10.812;2022-10-26T10:10:58;95601.31;;;19.12;58.66
47750;BME280;49810;48.160;10.812;2022-10-26T10:13:31;95591.75;;;19.06;59.46
47750;BME280;49810;48.160;10.812;2022-10-26T10:16:10;95603.69;;;18.95;59.68
47750;BME280;49810;48.160;10.812;2022-10-26T10:18:40;95614.25;;;19.05;59.94
47750;BME280;49810;48.160;10.812;2022-10-26T10:21:09;95615.34;;;19.04;59.04
47750;BME280;49810;48.160;10.812;2022-10-26T10:23:46;95610.56;;;19.01;59.25
47750;BME280;49810;48.160;10.812;2022-10-26T10:26:15;95613.91;;;19.12;58.75
47750;BME280;49810;48.160;10.812;2022-10-26T10:28:55;95615.41;;;18.99;58.10
47750;BME280;49810;48.160;10.812;2022-10-26T10:31:28;95617.22;;;19.04;58.23
47750;BME280;49810;48.160;10.812;2022-10-26T10:33:57;95609.50;;;19.02;59.37
47750;BME280;49810;48.160;10.812;2022-10-26T10:36:27;95613.84;;;19.17;58.76
47750;BME280;49810;48.160;10.812;2022-10-26T10:38:56;95620.56;;;19.14;58.58
47750;BME280;49810;48.160;10.812;2022-10-26T10:41:26;95617.47;;;19.07;58.87
47750;BME280;49810;48.160;10.812;2022-10-26T10:44:04;95626.63;;;19.25;58.33
47750;BME280;49810;48.160;10.812;2022-10-26T10:46:34;95630.06;;;19.07;59.34
47750;BME280;49810;48.160;10.812;2022-10-26T10:49:05;95630.50;;;18.72;59.81
47750;BME280;49810;48.160;10.812;2022-10-26T10:51:38;95631.19;;;18.59;60.44
47750;BME280;49810;48.160;10.812;2022-10-26T10:54:19;95631.69;;;18.61;60.89
47750;BME280;49810;48.160;10.812;2022-10-26T10:56:51;95637.66;;;18.24;61.09
47750;BME280;49810;48.160;10.812;2022-10-26T10:59:44;95645.69;;;18.29;61.17
47750;BME280;49810;48.160;10.812;2022-10-26T11:02:46;95632.91;;;18.21;61.29
47750;BME280;49810;48.160;10.812;2022-10-26T11:05:39;95645.06;;;18.37;61.11
47750;BME280;49810;48.160;10.812;2022-10-26T11:08:17;95640.56;;;18.33;61.68
47750;BME280;49810;48.160;10.812;2022-10-26T11:10:50;95643.50;;;18.31;61.62
47750;BME280;49810;48.160;10.812;2022-10-26T11:13:23;95643.69;;;18.40;62.26
47750;BME280;49810;48.160;10.812;2022-10-26T11:15:55;95646.47;;;18.58;61.46
47750;BME280;49810;48.160;10.812;2022-10-26T11:18:28;95651.47;;;18.65;60.76
47750;BME280;49810;48.160;10.812;2022-10-26T11:21:01;95657.59;;;18.70;60.32
47750;BME280;49810;48.160;10.812;2022-10-26T11:23:35;95647.13;;;18.92;60.31
47750;BME280;49810;48.160;10.812;2022-10-26T11:26:10;95642.91;;;18.86;61.25
47750;BME280;49810;48.160;10.812;2022-10-26T11:28:45;95645.78;;;18.95;59.90
47750;BME280;49810;48.160;10.812;2022-10-26T11:31:20;95647.66;;;18.94;60.61
47750;BME280;49810;48.160;10.812;2022-10-26T11:34:07;95654.13;;;19.12;60.17
47750;BME280;49810;48.160;10.812;2022-10-26T11:36:41;95657.31;;;19.14;59.79
47750;BME280;49810;48.160;10.812;2022-10-26T11:39:17;95654.66;;;19.14;60.17
47750;BME280;49810;48.160;10.812;2022-10-26T11:41:50;95660.19;;;19.22;59.66
47750;BME280;49810;48.160;10.812;2022-10-26T11:44:24;95657.03;;;19.15;59.89
47750;BME280;49810;48.160;10.812;2022-10-26T11:47:01;95656.72;;;19.17;59.82
47750;BME280;49810;48.160;10.812;2022-10-26T11:49:37;95659.13;;;19.18;60.49
47750;BME280;49810;48.160;10.812;2022-10-26T11:52:10;95657.28;;;18.95;61.63
47750;BME280;49810;48.160;10.812;2022-10-26T11:54:46;95671.72;;;18.99;61.12
47750;BME280;49810;48.160;10.812;2022-10-26T11:57:18;95670.81;;;18.85;61.35
47750;BME280;49810;48.160;10.812;2022-10-26T11:59:50;95674.28;;;18.86;61.32
47750;BME280;49810;48.160;10.812;2022-10-26T12:02:22;95674.16;;;18.96;61.90
47750;BME280;49810;48.160;10.812;2022-10-26T12:04:53;95671.44;;;19.01;61.47
47750;BME280;49810;48.160;10.812;2022-10-26T12:07:25;95676.59;;;19.16;60.76
47750;BME280;49810;48.160;10.812;2022-10-26T12:09:56;95678.84;;;19.09;61.15
47750;BME280;49810;48.160;10.812;2022-10-26T12:12:33;95677.75;;;19.10;60.84
47750;BME280;49810;48.160;10.812;2022-10-26T12:15:15;95685.78;;;19.89;58.45
47750;BME280;49810;48.160;10.812;2022-10-26T12:17:50;95686.44;;;20.18;58.42
47750;BME280;49810;48.160;10.812;2022-10-26T12:23:34;95687.28;;;20.46;57.34
47750;BME280;49810;48.160;10.812;2022-10-26T12:29:35;95688.91;;;20.60;56.43
47750;BME280;49810;48.160;10.812;2022-10-26T12:35:38;95693.13;;;20.34;57.78
47750;BME280;49810;48.160;10.812;2022-10-26T12:41:25;95693.75;;;20.45;57.83
47750;BME280;49810;48.160;10.812;2022-10-26T12:44:00;95697.84;;;20.56;56.67
47750;BME280;49810;48.160;10.812;2022-10-26T12:46:38;95696.75;;;20.43;57.08
47750;BME280;49810;48.160;10.812;2022-10-26T12:52:45;95696.03;;;20.97;55.47
47750;BME280;49810;48.160;10.812;2022-10-26T12:58:31;95695.06;;;20.47;56.27
47750;BME280;49810;48.160;10.812;2022-10-26T13:01:20;95692.31;;;20.66;56.80
47750;BME280;49810;48.160;10.812;2022-10-26T13:04:01;95701.19;;;20.80;56.05
47750;BME280;49810;48.160;10.812;2022-10-26T13:06:42;95693.94;;;20.35;57.48
47750;BME280;49810;48.160;10.812;2022-10-26T13:09:18;95708.13;;;20.22;58.02
47750;BME280;49810;48.160;10.812;2022-10-26T13:11:48;95708.63;;;20.05;58.40
47750;BME280;49810;48.160;10.812;2022-10-26T13:14:21;95711.81;;;20.07;58.05
47750;BME280;49810;48.160;10.812;2022-10-26T13:16:51;95710.19;;;19.93;58.75
47750;BME280;49810;48.160;10.812;2022-10-26T13:19:24;95713.72;;;19.69;58.83
47750;BME280;49810;48.160;10.812;2022-10-26T13:21:53;95715.69;;;19.64;59.68
47750;BME280;49810;48.160;10.812;2022-10-26T13:24:27;95712.06;;;19.55;59.45
47750;BME280;49810;48.160;10.812;2022-10-26T13:27:38;95708.13;;;19.66;59.42
47750;BME280;49810;48.160;10.812;2022-10-26T13:30:34;95705.66;;;19.51;59.10
47750;BME280;49810;48.160;10.812;2022-10-26T13:33:16;95709.66;;;19.53;58.93
47750;BME280;49810;48.160;10.812;2022-10-26T13:35:47;95714.50;;;19.51;58.81
47750;BME280;49810;48.160;10.812;2022-10-26T13:38:19;95723.03;;;19.77;58.05